sensor_id;sensor_type;location;lat;lon;timestamp;temperature;humidity
44537;DHT22;30245;51.966;6.292;2023-03-23T00:01:03;16.60;65.60
44537;DHT22;30245;51.966;6.292;2023-03-23T00:03:29;16.60;65.70
44537;DHT22;30245;51.966;6.292;2023-03-23T00:05:57;16.60;65.60
44537;DHT22;30245;51.966;6.292;2023-03-23T00:08:38;16.60;65.40
44537;DHT22;30245;51.966;6.292;2023-03-23T00:11:16;16.70;65.30
44537;DHT22;30245;51.966;6.292;2023-03-23T00:13:43;16.70;65.20
44537;DHT22;30245;51.966;6.292;2023-03-23T00:16:10;16.70;65.10
44537;DHT22;30245;51.966;6.292;2023-03-23T00:18:44;16.80;65.10
44537;DHT22;30245;51.966;6.292;2023-03-23T00:21:10;16.80;64.80
44537;DHT22;30245;51.966;6.292;2023-03-23T00:23:36;16.80;64.70
44537;DHT22;30245;51.966;6.292;2023-03-23T00:26:01;16.80;64.80
44537;DHT22;30245;51.966;6.292;2023-03-23T00:28:27;16.80;64.70
44537;DHT22;30245;51.966;6.292;2023-03-23T00:33:24;16.80;64.60
44537;DHT22;30245;51.966;6.292;2023-03-23T00:35:50;16.80;64.40
44537;DHT22;30245;51.966;6.292;2023-03-23T00:38:21;16.90;64.30
44537;DHT22;30245;51.966;6.292;2023-03-23T00:40:47;16.90;64.30
44537;DHT22;30245;51.966;6.292;2023-03-23T00:43:14;16.90;64.20
44537;DHT22;30245;51.966;6.292;2023-03-23T00:45:41;16.90;64.20
44537;DHT22;30245;51.966;6.292;2023-03-23T00:48:07;16.90;64.10
44537;DHT22;30245;51.966;6.292;2023-03-23T00:50:33;16.90;64.00
44537;DHT22;30245;51.966;6.292;2023-03-23T00:52:59;16.90;63.90
44537;DHT22;30245;51.966;6.292;2023-03-23T00:55:25;17.00;63.80
44537;DHT22;30245;51.966;6.292;2023-03-23T00:57:51;16.90;63.60
44537;DHT22;30245;51.966;6.292;2023-03-23T01:00:18;17.00;63.60
44537;DHT22;30245;51.966;6.292;2023-03-23T01:02:45;17.00;63.60
44537;DHT22;30245;51.966;6.292;2023-03-23T01:05:11;17.00;63.50
44537;DHT22;30245;51.966;6.292;2023-03-23T01:07:37;17.00;63.30
44537;DHT22;30245;51.966;6.292;2023-03-23T01:10:03;17.00;63.50
44537;DHT22;30245;51.966;6.292;2023-03-23T01:12:29;17.00;63.40
44537;DHT22;30245;51.966;6.292;2023-03-23T01:14:55;17.00;63.30
44537;DHT22;30245;51.966;6.292;2023-03-23T01:17:21;16.90;63.40
44537;DHT22;30245;51.966;6.292;2023-03-23T01:19:46;17.00;63.40
44537;DHT22;30245;51.966;6.292;2023-03-23T01:22:12;17.00;63.30
44537;DHT22;30245;51.966;6.292;2023-03-23T01:24:38;17.00;63.30
44537;DHT22;30245;51.966;6.292;2023-03-23T01:27:03;17.00;63.20
44537;DHT22;30245;51.966;6.292;2023-03-23T01:29:33;17.10;63.20
44537;DHT22;30245;51.966;6.292;2023-03-23T01:31:59;17.00;63.00
44537;DHT22;30245;51.966;6.292;2023-03-23T01:34:24;17.10;63.00
44537;DHT22;30245;51.966;6.292;2023-03-23T01:36:50;17.10;63.00
44537;DHT22;30245;51.966;6.292;2023-03-23T01:39:16;17.10;63.00
44537;DHT22;30245;51.966;6.292;2023-03-23T01:41:41;17.10;63.10
44537;DHT22;30245;51.966;6.292;2023-03-23T01:46:42;17.10;63.10
44537;DHT22;30245;51.966;6.292;2023-03-23T01:49:12;17.10;63.10
44537;DHT22;30245;51.966;6.292;2023-03-23T01:51:42;17.00;63.20
44537;DHT22;30245;51.966;6.292;2023-03-23T01:54:13;17.00;63.10
44537;DHT22;30245;51.966;6.292;2023-03-23T01:56:45;17.00;63.10
44537;DHT22;30245;51.966;6.292;2023-03-23T01:59:13;17.10;63.10
44537;DHT22;30245;51.966;6.292;2023-03-23T02:01:39;17.10;62.90
44537;DHT22;30245;51.966;6.292;2023-03-23T02:04:11;17.10;62.80
44537;DHT22;30245;51.966;6.292;2023-03-23T02:06:38;17.10;62.70
44537;DHT22;30245;51.966;6.292;2023-03-23T02:09:04;17.10;62.70
44537;DHT22;30245;51.966;6.292;2023-03-23T02:11:33;17.10;62.70
44537;DHT22;30245;51.966;6.292;2023-03-23T02:13:58;17.00;62.80
44537;DHT22;30245;51.966;6.292;2023-03-23T02:25:32;17.00;63.00
44537;DHT22;30245;51.966;6.292;2023-03-23T02:33:49;17.00;63.10
44537;DHT22;30245;51.966;6.292;2023-03-23T02:36:30;17.00;63.00
44537;DHT22;30245;51.966;6.292;2023-03-23T02:39:09;17.00;63.10
44537;DHT22;30245;51.966;6.292;2023-03-23T02:41:39;17.00;63.20
44537;DHT22;30245;51.966;6.292;2023-03-23T02:44:07;17.00;63.20
44537;DHT22;30245;51.966;6.292;2023-03-23T02:46:34;17.10;63.00
44537;DHT22;30245;51.966;6.292;2023-03-23T02:49:01;17.00;63.00
44537;DHT22;30245;51.966;6.292;2023-03-23T02:51:29;17.00;63.00
44537;DHT22;30245;51.966;6.292;2023-03-23T02:53:56;17.10;63.00
44537;DHT22;30245;51.966;6.292;2023-03-23T02:56:25;17.00;63.00
44537;DHT22;30245;51.966;6.292;2023-03-23T02:58:53;17.10;63.10
44537;DHT22;30245;51.966;6.292;2023-03-23T03:03:52;17.00;63.00
44537;DHT22;30245;51.966;6.292;2023-03-23T03:06:31;17.10;63.20
44537;DHT22;30245;51.966;6.292;2023-03-23T03:09:05;17.10;63.10
44537;DHT22;30245;51.966;6.292;2023-03-23T03:11:34;17.10;63.00
44537;DHT22;30245;51.966;6.292;2023-03-23T03:14:06;17.20;63.00
44537;DHT22;30245;51.966;6.292;2023-03-23T03:16:40;17.10;62.90
44537;DHT22;30245;51.966;6.292;2023-03-23T03:21:42;17.10;62.70
44537;DHT22;30245;51.966;6.292;2023-03-23T03:24:11;17.20;62.80
44537;DHT22;30245;51.966;6.292;2023-03-23T03:26:44;17.10;62.70
44537;DHT22;30245;51.966;6.292;2023-03-23T03:29:14;17.10;62.70
44537;DHT22;30245;51.966;6.292;2023-03-23T03:31:43;17.20;62.60
44537;DHT22;30245;51.966;6.292;2023-03-23T03:34:10;17.20;62.60
44537;DHT22;30245;51.966;6.292;2023-03-23T03:36:36;17.20;62.50
44537;DHT22;30245;51.966;6.292;2023-03-23T03:39:07;17.20;62.50
44537;DHT22;30245;51.966;6.292;2023-03-23T03:41:37;17.30;63.10
44537;DHT22;30245;51.966;6.292;2023-03-23T03:44:04;17.30;62.30
44537;DHT22;30245;51.966;6.292;2023-03-23T03:46:31;17.30;62.20
44537;DHT22;30245;51.966;6.292;2023-03-23T03:48:57;17.30;62.00
44537;DHT22;30245;51.966;6.292;2023-03-23T03:51:24;17.40;62.20
44537;DHT22;30245;51.966;6.292;2023-03-23T03:53:50;17.30;62.10
44537;DHT22;30245;51.966;6.292;2023-03-23T03:56:17;17.40;62.10
44537;DHT22;30245;51.966;6.292;2023-03-23T03:58:43;17.40;62.10
44537;DHT22;30245;51.966;6.292;2023-03-23T04:01:09;17.40;61.90
44537;DHT22;30245;51.966;6.292;2023-03-23T04:03:36;17.50;62.00
44537;DHT22;30245;51.966;6.292;2023-03-23T04:06:03;17.50;61.90
44537;DHT22;30245;51.966;6.292;2023-03-23T04:08:29;17.50;61.90
44537;DHT22;30245;51.966;6.292;2023-03-23T04:10:55;17.50;62.00
44537;DHT22;30245;51.966;6.292;2023-03-23T04:13:21;17.50;62.20
44537;DHT22;30245;51.966;6.292;2023-03-23T04:15:47;17.40;62.10
44537;DHT22;30245;51.966;6.292;2023-03-23T04:18:14;17.40;62.10
44537;DHT22;30245;51.966;6.292;2023-03-23T04:20:42;17.40;62.20
44537;DHT22;30245;51.966;6.292;2023-03-23T04:23:08;17.40;62.20
44537;DHT22;30245;51.966;6.292;2023-03-23T04:25:33;17.40;61.70
44537;DHT22;30245;51.966;6.292;2023-03-23T04:27:59;17.40;61.80
44537;DHT22;30245;51.966;6.292;2023-03-23T04:30:27;17.40;61.90
44537;DHT22;30245;51.966;6.292;2023-03-23T04:32:53;17.40;62.00
44537;DHT22;30245;51.966;6.292;2023-03-23T04:35:22;17.40;62.00
44537;DHT22;30245;51.966;6.292;2023-03-23T04:37:48;17.30;62.10
44537;DHT22;30245;51.966;6.292;2023-03-23T04:40:16;17.30;62.10
44537;DHT22;30245;51.966;6.292;2023-03-23T04:42:43;17.40;62.10
44537;DHT22;30245;51.966;6.292;2023-03-23T04:45:14;17.40;62.00
44537;DHT22;30245;51.966;6.292;2023-03-23T04:47:40;17.40;61.90
44537;DHT22;30245;51.966;6.292;2023-03-23T04:50:11;17.40;61.90
44537;DHT22;30245;51.966;6.292;2023-03-23T04:52:39;17.40;62.00
44537;DHT22;30245;51.966;6.292;2023-03-23T04:55:07;17.40;62.00
44537;DHT22;30245;51.966;6.292;2023-03-23T04:57:34;17.40;62.00
44537;DHT22;30245;51.966;6.292;2023-03-23T05:00:00;17.40;62.00
44537;DHT22;30245;51.966;6.292;2023-03-23T05:02:30;17.30;61.90
44537;DHT22;30245;51.966;6.292;2023-03-23T05:04:57;17.30;61.80
44537;DHT22;30245;51.966;6.292;2023-03-23T05:07:23;17.40;61.70
44537;DHT22;30245;51.966;6.292;2023-03-23T05:09:49;17.40;61.60
44537;DHT22;30245;51.966;6.292;2023-03-23T05:12:15;17.40;61.50
44537;DHT22;30245;51.966;6.292;2023-03-23T05:14:41;17.40;61.40
44537;DHT22;30245;51.966;6.292;2023-03-23T05:17:08;17.30;61.20
44537;DHT22;30245;51.966;6.292;2023-03-23T05:19:35;17.40;61.30
44537;DHT22;30245;51.966;6.292;2023-03-23T05:22:01;17.40;61.10
44537;DHT22;30245;51.966;6.292;2023-03-23T05:24:31;17.40;61.00
44537;DHT22;30245;51.966;6.292;2023-03-23T05:26:59;17.40;60.70
44537;DHT22;30245;51.966;6.292;2023-03-23T05:29:24;17.40;60.80
44537;DHT22;30245;51.966;6.292;2023-03-23T05:31:52;17.40;60.60
44537;DHT22;30245;51.966;6.292;2023-03-23T05:34:18;17.40;60.50
44537;DHT22;30245;51.966;6.292;2023-03-23T05:36:45;17.50;60.40
44537;DHT22;30245;51.966;6.292;2023-03-23T05:39:11;17.50;60.20
44537;DHT22;30245;51.966;6.292;2023-03-23T05:41:39;17.50;59.90
44537;DHT22;30245;51.966;6.292;2023-03-23T05:44:04;17.50;59.80
44537;DHT22;30245;51.966;6.292;2023-03-23T05:46:30;17.50;59.80
44537;DHT22;30245;51.966;6.292;2023-03-23T05:48:56;17.40;59.70
44537;DHT22;30245;51.966;6.292;2023-03-23T05:51:21;17.40;59.60
44537;DHT22;30245;51.966;6.292;2023-03-23T05:53:47;17.50;59.50
44537;DHT22;30245;51.966;6.292;2023-03-23T05:56:13;17.50;59.50
44537;DHT22;30245;51.966;6.292;2023-03-23T05:58:39;17.50;59.30
44537;DHT22;30245;51.966;6.292;2023-03-23T06:01:09;17.50;59.20
44537;DHT22;30245;51.966;6.292;2023-03-23T06:03:35;17.50;59.20
44537;DHT22;30245;51.966;6.292;2023-03-23T06:06:04;17.50;59.20
44537;DHT22;30245;51.966;6.292;2023-03-23T06:08:30;17.50;59.10
44537;DHT22;30245;51.966;6.292;2023-03-23T06:10:55;17.50;59.10
44537;DHT22;30245;51.966;6.292;2023-03-23T06:13:22;17.50;58.90
44537;DHT22;30245;51.966;6.292;2023-03-23T06:15:48;17.50;58.90
44537;DHT22;30245;51.966;6.292;2023-03-23T06:18:14;17.50;58.80
44537;DHT22;30245;51.966;6.292;2023-03-23T06:20:40;17.50;58.80
44537;DHT22;30245;51.966;6.292;2023-03-23T06:23:07;17.50;58.70
44537;DHT22;30245;51.966;6.292;2023-03-23T06:25:34;17.50;58.50
44537;DHT22;30245;51.966;6.292;2023-03-23T06:28:00;17.60;58.40
44537;DHT22;30245;51.966;6.292;2023-03-23T06:30:26;17.60;58.30
44537;DHT22;30245;51.966;6.292;2023-03-23T06:32:52;17.60;58.20
44537;DHT22;30245;51.966;6.292;2023-03-23T06:35:18;17.60;58.80
44537;DHT22;30245;51.966;6.292;2023-03-23T06:37:44;17.60;58.30
44537;DHT22;30245;51.966;6.292;2023-03-23T06:40:09;17.60;58.40
44537;DHT22;30245;51.966;6.292;2023-03-23T06:42:36;17.60;58.40
44537;DHT22;30245;51.966;6.292;2023-03-23T06:45:03;17.70;59.00
44537;DHT22;30245;51.966;6.292;2023-03-23T06:47:29;17.80;58.30
44537;DHT22;30245;51.966;6.292;2023-03-23T06:49:57;17.70;58.20
44537;DHT22;30245;51.966;6.292;2023-03-23T06:52:24;17.70;58.20
44537;DHT22;30245;51.966;6.292;2023-03-23T06:54:51;17.70;58.20
44537;DHT22;30245;51.966;6.292;2023-03-23T06:57:17;17.70;58.10
44537;DHT22;30245;51.966;6.292;2023-03-23T06:59:44;17.60;58.20
44537;DHT22;30245;51.966;6.292;2023-03-23T07:02:11;17.60;58.40
44537;DHT22;30245;51.966;6.292;2023-03-23T07:04:38;17.60;58.50
44537;DHT22;30245;51.966;6.292;2023-03-23T07:07:04;17.60;58.50
44537;DHT22;30245;51.966;6.292;2023-03-23T07:09:31;17.60;58.50
44537;DHT22;30245;51.966;6.292;2023-03-23T07:11:56;17.60;58.60
44537;DHT22;30245;51.966;6.292;2023-03-23T07:14:22;17.60;58.60
44537;DHT22;30245;51.966;6.292;2023-03-23T07:16:48;17.60;58.70
44537;DHT22;30245;51.966;6.292;2023-03-23T07:19:13;17.50;58.70
44537;DHT22;30245;51.966;6.292;2023-03-23T07:21:39;17.60;58.80
44537;DHT22;30245;51.966;6.292;2023-03-23T07:24:05;17.60;58.60
44537;DHT22;30245;51.966;6.292;2023-03-23T07:26:31;17.60;58.70
44537;DHT22;30245;51.966;6.292;2023-03-23T07:28:57;17.60;58.70
44537;DHT22;30245;51.966;6.292;2023-03-23T07:31:22;17.60;58.70
44537;DHT22;30245;51.966;6.292;2023-03-23T07:33:48;17.60;58.80
44537;DHT22;30245;51.966;6.292;2023-03-23T07:36:14;17.60;58.80
44537;DHT22;30245;51.966;6.292;2023-03-23T07:38:39;17.60;59.00
44537;DHT22;30245;51.966;6.292;2023-03-23T07:41:05;17.50;59.10
44537;DHT22;30245;51.966;6.292;2023-03-23T07:43:31;17.50;59.40
44537;DHT22;30245;51.966;6.292;2023-03-23T07:45:57;17.40;59.60
44537;DHT22;30245;51.966;6.292;2023-03-23T07:48:23;17.30;60.00
44537;DHT22;30245;51.966;6.292;2023-03-23T07:50:48;17.20;60.20
44537;DHT22;30245;51.966;6.292;2023-03-23T07:53:15;17.20;60.40
44537;DHT22;30245;51.966;6.292;2023-03-23T07:55:41;17.00;60.50
44537;DHT22;30245;51.966;6.292;2023-03-23T07:58:07;17.00;60.80
44537;DHT22;30245;51.966;6.292;2023-03-23T08:00:33;16.90;60.90
44537;DHT22;30245;51.966;6.292;2023-03-23T08:03:00;16.70;61.00
44537;DHT22;30245;51.966;6.292;2023-03-23T08:05:26;16.60;60.90
44537;DHT22;30245;51.966;6.292;2023-03-23T08:07:54;16.60;60.90
44537;DHT22;30245;51.966;6.292;2023-03-23T08:10:20;16.60;61.20
44537;DHT22;30245;51.966;6.292;2023-03-23T08:12:51;16.60;61.50
44537;DHT22;30245;51.966;6.292;2023-03-23T08:15:17;16.50;62.00
44537;DHT22;30245;51.966;6.292;2023-03-23T08:17:44;16.60;62.10
44537;DHT22;30245;51.966;6.292;2023-03-23T08:20:11;16.60;62.00
44537;DHT22;30245;51.966;6.292;2023-03-23T08:22:39;16.60;62.20
44537;DHT22;30245;51.966;6.292;2023-03-23T08:25:06;16.60;62.00
44537;DHT22;30245;51.966;6.292;2023-03-23T08:27:33;16.70;61.90
44537;DHT22;30245;51.966;6.292;2023-03-23T08:29:59;16.80;61.90
44537;DHT22;30245;51.966;6.292;2023-03-23T08:32:25;16.70;62.00
44537;DHT22;30245;51.966;6.292;2023-03-23T08:34:52;16.70;62.30
44537;DHT22;30245;51.966;6.292;2023-03-23T08:37:17;16.70;62.40
44537;DHT22;30245;51.966;6.292;2023-03-23T08:39:43;16.70;62.60
44537;DHT22;30245;51.966;6.292;2023-03-23T08:42:09;16.80;62.70
44537;DHT22;30245;51.966;6.292;2023-03-23T08:44:35;16.80;62.70
44537;DHT22;30245;51.966;6.292;2023-03-23T08:47:01;16.90;62.60
44537;DHT22;30245;51.966;6.292;2023-03-23T08:49:30;17.00;62.40
44537;DHT22;30245;51.966;6.292;2023-03-23T08:51:58;17.00;63.00
44537;DHT22;30245;51.966;6.292;2023-03-23T08:54:24;17.00;62.40
44537;DHT22;30245;51.966;6.292;2023-03-23T08:56:49;17.00;62.30
44537;DHT22;30245;51.966;6.292;2023-03-23T08:59:16;17.00;62.20
44537;DHT22;30245;51.966;6.292;2023-03-23T09:01:42;17.00;62.10
44537;DHT22;30245;51.966;6.292;2023-03-23T09:04:08;17.00;61.90
44537;DHT22;30245;51.966;6.292;2023-03-23T09:06:35;17.00;61.90
44537;DHT22;30245;51.966;6.292;2023-03-23T09:09:02;17.00;61.70
44537;DHT22;30245;51.966;6.292;2023-03-23T09:11:35;17.10;61.60
44537;DHT22;30245;51.966;6.292;2023-03-23T09:14:02;17.20;61.40
44537;DHT22;30245;51.966;6.292;2023-03-23T09:16:29;17.20;61.10
44537;DHT22;30245;51.966;6.292;2023-03-23T09:18:55;17.30;60.80
44537;DHT22;30245;51.966;6.292;2023-03-23T09:21:22;17.30;60.50
44537;DHT22;30245;51.966;6.292;2023-03-23T09:23:49;17.30;60.60
44537;DHT22;30245;51.966;6.292;2023-03-23T09:26:14;17.30;60.10
44537;DHT22;30245;51.966;6.292;2023-03-23T09:28:40;17.20;59.70
44537;DHT22;30245;51.966;6.292;2023-03-23T09:31:06;17.10;60.00
44537;DHT22;30245;51.966;6.292;2023-03-23T09:33:32;17.20;60.00
44537;DHT22;30245;51.966;6.292;2023-03-23T09:36:01;17.20;60.00
44537;DHT22;30245;51.966;6.292;2023-03-23T09:38:27;17.20;59.40
44537;DHT22;30245;51.966;6.292;2023-03-23T09:41:12;17.10;59.40
44537;DHT22;30245;51.966;6.292;2023-03-23T09:43:52;17.20;59.30
44537;DHT22;30245;51.966;6.292;2023-03-23T09:48:55;17.30;58.60
44537;DHT22;30245;51.966;6.292;2023-03-23T09:54:36;17.30;58.60
44537;DHT22;30245;51.966;6.292;2023-03-23T09:57:02;17.40;58.60
44537;DHT22;30245;51.966;6.292;2023-03-23T09:59:39;17.70;58.10
44537;DHT22;30245;51.966;6.292;2023-03-23T10:02:27;17.80;57.80
44537;DHT22;30245;51.966;6.292;2023-03-23T10:04:56;18.10;57.30
44537;DHT22;30245;51.966;6.292;2023-03-23T10:07:26;18.80;56.50
44537;DHT22;30245;51.966;6.292;2023-03-23T10:09:57;19.60;55.30
44537;DHT22;30245;51.966;6.292;2023-03-23T10:17:33;20.70;52.60
44537;DHT22;30245;51.966;6.292;2023-03-23T10:20:09;21.20;50.90
44537;DHT22;30245;51.966;6.292;2023-03-23T10:22:49;21.60;50.50
44537;DHT22;30245;51.966;6.292;2023-03-23T10:25:21;21.90;49.30
44537;DHT22;30245;51.966;6.292;2023-03-23T10:30:42;22.20;47.90
44537;DHT22;30245;51.966;6.292;2023-03-23T10:35:59;22.30;47.50
44537;DHT22;30245;51.966;6.292;2023-03-23T10:38:34;22.30;47.80
44537;DHT22;30245;51.966;6.292;2023-03-23T10:41:05;22.30;47.80
44537;DHT22;30245;51.966;6.292;2023-03-23T10:43:32;22.50;46.90
44537;DHT22;30245;51.966;6.292;2023-03-23T10:46:49;22.40;46.00
44537;DHT22;30245;51.966;6.292;2023-03-23T10:48:51;22.40;45.90
44537;DHT22;30245;51.966;6.292;2023-03-23T10:51:21;22.50;46.30
44537;DHT22;30245;51.966;6.292;2023-03-23T10:53:56;22.60;45.90
44537;DHT22;30245;51.966;6.292;2023-03-23T10:56:42;22.60;45.90
44537;DHT22;30245;51.966;6.292;2023-03-23T10:59:39;22.60;45.10
44537;DHT22;30245;51.966;6.292;2023-03-23T11:02:17;22.60;45.80
44537;DHT22;30245;51.966;6.292;2023-03-23T11:04:56;22.90;45.10
44537;DHT22;30245;51.966;6.292;2023-03-23T11:07:28;22.90;44.00
44537;DHT22;30245;51.966;6.292;2023-03-23T11:09:57;22.90;43.70
44537;DHT22;30245;51.966;6.292;2023-03-23T11:12:24;22.80;44.00
44537;DHT22;30245;51.966;6.292;2023-03-23T11:14:51;22.80;43.90
44537;DHT22;30245;51.966;6.292;2023-03-23T11:17:25;22.70;43.90
44537;DHT22;30245;51.966;6.292;2023-03-23T11:19:52;22.80;44.40
44537;DHT22;30245;51.966;6.292;2023-03-23T11:22:27;22.70;44.10
44537;DHT22;30245;51.966;6.292;2023-03-23T11:25:02;22.60;44.60
44537;DHT22;30245;51.966;6.292;2023-03-23T11:27:29;22.60;44.30
44537;DHT22;30245;51.966;6.292;2023-03-23T11:29:58;22.60;43.80
44537;DHT22;30245;51.966;6.292;2023-03-23T11:32:28;22.40;42.60
44537;DHT22;30245;51.966;6.292;2023-03-23T11:34:57;22.10;43.00
44537;DHT22;30245;51.966;6.292;2023-03-23T11:37:48;22.00;43.30
44537;DHT22;30245;51.966;6.292;2023-03-23T11:40:18;22.00;43.30
44537;DHT22;30245;51.966;6.292;2023-03-23T11:50:50;21.30;44.40
44537;DHT22;30245;51.966;6.292;2023-03-23T11:56:08;21.30;45.40
44537;DHT22;30245;51.966;6.292;2023-03-23T11:58:36;21.40;45.20
44537;DHT22;30245;51.966;6.292;2023-03-23T12:30:54;22.20;44.30
44537;DHT22;30245;51.966;6.292;2023-03-23T12:33:45;22.10;44.10
44537;DHT22;30245;51.966;6.292;2023-03-23T12:47:46;22.00;43.80
44537;DHT22;30245;51.966;6.292;2023-03-23T12:55:40;22.00;44.40
44537;DHT22;30245;51.966;6.292;2023-03-23T12:58:12;22.10;44.40
44537;DHT22;30245;51.966;6.292;2023-03-23T13:01:12;22.10;43.50
44537;DHT22;30245;51.966;6.292;2023-03-23T13:04:20;22.00;43.70
44537;DHT22;30245;51.966;6.292;2023-03-23T13:06:44;22.00;43.50
44537;DHT22;30245;51.966;6.292;2023-03-23T13:09:43;22.00;44.00
44537;DHT22;30245;51.966;6.292;2023-03-23T13:12:11;22.10;43.80
44537;DHT22;30245;51.966;6.292;2023-03-23T13:25:46;22.10;44.10
44537;DHT22;30245;51.966;6.292;2023-03-23T13:28:19;22.20;43.60
44537;DHT22;30245;51.966;6.292;2023-03-23T13:31:02;22.30;43.30
44537;DHT22;30245;51.966;6.292;2023-03-23T13:33:31;22.30;43.20
44537;DHT22;30245;51.966;6.292;2023-03-23T13:36:01;22.30;43.00
44537;DHT22;30245;51.966;6.292;2023-03-23T13:38:30;22.30;42.30
44537;DHT22;30245;51.966;6.292;2023-03-23T13:40:56;22.00;42.90
44537;DHT22;30245;51.966;6.292;2023-03-23T13:43:31;21.80;43.50
44537;DHT22;30245;51.966;6.292;2023-03-23T13:46:08;21.80;43.70
44537;DHT22;30245;51.966;6.292;2023-03-23T13:48:43;21.70;43.80
44537;DHT22;30245;51.966;6.292;2023-03-23T13:51:33;21.70;43.80
44537;DHT22;30245;51.966;6.292;2023-03-23T13:54:38;21.60;44.20
44537;DHT22;30245;51.966;6.292;2023-03-23T13:59:59;21.20;46.00
44537;DHT22;30245;51.966;6.292;2023-03-23T14:02:37;21.10;46.80
44537;DHT22;30245;51.966;6.292;2023-03-23T14:08:10;20.80;48.20
44537;DHT22;30245;51.966;6.292;2023-03-23T14:10:37;20.70;48.50
44537;DHT22;30245;51.966;6.292;2023-03-23T14:13:06;20.70;49.00
44537;DHT22;30245;51.966;6.292;2023-03-23T14:15:43;20.70;49.30
44537;DHT22;30245;51.966;6.292;2023-03-23T14:18:14;20.70;49.10
44537;DHT22;30245;51.966;6.292;2023-03-23T14:20:41;20.80;49.30
44537;DHT22;30245;51.966;6.292;2023-03-23T14:23:16;20.90;49.50
44537;DHT22;30245;51.966;6.292;2023-03-23T14:25:42;21.00;49.70
44537;DHT22;30245;51.966;6.292;2023-03-23T14:28:19;21.10;49.50
44537;DHT22;30245;51.966;6.292;2023-03-23T14:30:48;21.10;49.40
44537;DHT22;30245;51.966;6.292;2023-03-23T14:33:18;21.00;49.40
44537;DHT22;30245;51.966;6.292;2023-03-23T14:35:45;21.00;49.70
44537;DHT22;30245;51.966;6.292;2023-03-23T14:38:14;20.90;49.80
44537;DHT22;30245;51.966;6.292;2023-03-23T14:40:42;20.90;49.80
44537;DHT22;30245;51.966;6.292;2023-03-23T14:43:10;20.90;49.70
44537;DHT22;30245;51.966;6.292;2023-03-23T14:45:38;20.70;50.60
44537;DHT22;30245;51.966;6.292;2023-03-23T14:48:06;20.50;50.50
44537;DHT22;30245;51.966;6.292;2023-03-23T14:50:39;20.30;51.10
44537;DHT22;30245;51.966;6.292;2023-03-23T14:55:37;19.80;51.80
44537;DHT22;30245;51.966;6.292;2023-03-23T14:58:07;19.70;51.80
44537;DHT22;30245;51.966;6.292;2023-03-23T15:00:38;19.60;52.10
44537;DHT22;30245;51.966;6.292;2023-03-23T15:03:05;20.00;52.20
44537;DHT22;30245;51.966;6.292;2023-03-23T15:05:37;20.80;51.00
44537;DHT22;30245;51.966;6.292;2023-03-23T15:08:11;21.60;49.70
44537;DHT22;30245;51.966;6.292;2023-03-23T15:10:39;22.40;48.70
44537;DHT22;30245;51.966;6.292;2023-03-23T15:13:05;23.20;47.40
44537;DHT22;30245;51.966;6.292;2023-03-23T15:15:33;23.90;46.10
44537;DHT22;30245;51.966;6.292;2023-03-23T15:18:00;24.40;45.20
44537;DHT22;30245;51.966;6.292;2023-03-23T15:22:53;24.60;44.20
44537;DHT22;30245;51.966;6.292;2023-03-23T15:30:46;24.40;43.90
44537;DHT22;30245;51.966;6.292;2023-03-23T15:33:13;24.30;44.00
44537;DHT22;30245;51.966;6.292;2023-03-23T15:35:44;24.30;44.10
44537;DHT22;30245;51.966;6.292;2023-03-23T15:38:24;24.10;43.50
44537;DHT22;30245;51.966;6.292;2023-03-23T15:40:53;24.00;43.80
44537;DHT22;30245;51.966;6.292;2023-03-23T15:43:22;24.00;43.90
44537;DHT22;30245;51.966;6.292;2023-03-23T15:45:58;24.10;43.70
44537;DHT22;30245;51.966;6.292;2023-03-23T15:48:49;24.10;43.00
44537;DHT22;30245;51.966;6.292;2023-03-23T15:51:17;24.10;43.30
44537;DHT22;30245;51.966;6.292;2023-03-23T15:53:43;24.10;43.10
44537;DHT22;30245;51.966;6.292;2023-03-23T15:56:11;24.10;43.50
44537;DHT22;30245;51.966;6.292;2023-03-23T15:58:38;24.00;43.40
44537;DHT22;30245;51.966;6.292;2023-03-23T16:01:27;23.90;43.90
44537;DHT22;30245;51.966;6.292;2023-03-23T16:04:04;24.00;44.00
44537;DHT22;30245;51.966;6.292;2023-03-23T16:06:32;23.80;43.90
44537;DHT22;30245;51.966;6.292;2023-03-23T16:08:58;23.70;44.30
44537;DHT22;30245;51.966;6.292;2023-03-23T16:11:27;23.70;44.50
44537;DHT22;30245;51.966;6.292;2023-03-23T16:13:53;23.70;44.30
44537;DHT22;30245;51.966;6.292;2023-03-23T16:16:25;23.60;44.00
44537;DHT22;30245;51.966;6.292;2023-03-23T16:18:52;23.50;44.10
44537;DHT22;30245;51.966;6.292;2023-03-23T16:21:17;23.20;44.10
44537;DHT22;30245;51.966;6.292;2023-03-23T16:23:43;22.90;44.80
44537;DHT22;30245;51.966;6.292;2023-03-23T16:26:11;22.70;45.10
44537;DHT22;30245;51.966;6.292;2023-03-23T16:28:37;22.50;45.60
44537;DHT22;30245;51.966;6.292;2023-03-23T16:31:02;22.40;45.80
44537;DHT22;30245;51.966;6.292;2023-03-23T16:33:28;22.20;46.10
44537;DHT22;30245;51.966;6.292;2023-03-23T16:35:53;21.90;46.50
44537;DHT22;30245;51.966;6.292;2023-03-23T16:38:19;21.70;47.10
44537;DHT22;30245;51.966;6.292;2023-03-23T16:40:46;21.50;47.70
44537;DHT22;30245;51.966;6.292;2023-03-23T16:43:12;21.30;48.30
44537;DHT22;30245;51.966;6.292;2023-03-23T16:45:39;21.10;48.70
44537;DHT22;30245;51.966;6.292;2023-03-23T16:48:05;20.90;49.90
44537;DHT22;30245;51.966;6.292;2023-03-23T16:50:33;20.80;49.60
44537;DHT22;30245;51.966;6.292;2023-03-23T16:52:59;20.80;49.90
44537;DHT22;30245;51.966;6.292;2023-03-23T16:55:26;20.80;50.00
44537;DHT22;30245;51.966;6.292;2023-03-23T16:57:53;20.80;50.10
44537;DHT22;30245;51.966;6.292;2023-03-23T17:00:19;20.60;50.20
44537;DHT22;30245;51.966;6.292;2023-03-23T17:02:46;20.50;50.40
44537;DHT22;30245;51.966;6.292;2023-03-23T17:05:13;20.50;50.70
44537;DHT22;30245;51.966;6.292;2023-03-23T17:07:40;20.30;51.10
44537;DHT22;30245;51.966;6.292;2023-03-23T17:10:08;20.20;51.30
44537;DHT22;30245;51.966;6.292;2023-03-23T17:12:34;20.10;51.60
44537;DHT22;30245;51.966;6.292;2023-03-23T17:15:00;20.00;51.80
44537;DHT22;30245;51.966;6.292;2023-03-23T17:17:26;20.00;52.00
44537;DHT22;30245;51.966;6.292;2023-03-23T17:19:52;19.90;52.90
44537;DHT22;30245;51.966;6.292;2023-03-23T17:22:18;19.80;52.50
44537;DHT22;30245;51.966;6.292;2023-03-23T17:24:43;19.80;52.70
44537;DHT22;30245;51.966;6.292;2023-03-23T17:27:12;19.70;52.90
44537;DHT22;30245;51.966;6.292;2023-03-23T17:29:38;19.70;53.10
44537;DHT22;30245;51.966;6.292;2023-03-23T17:32:04;19.60;54.00
44537;DHT22;30245;51.966;6.292;2023-03-23T17:34:30;19.50;53.50
44537;DHT22;30245;51.966;6.292;2023-03-23T17:36:55;19.40;53.80
44537;DHT22;30245;51.966;6.292;2023-03-23T17:39:21;19.30;54.00
44537;DHT22;30245;51.966;6.292;2023-03-23T17:41:46;19.30;54.20
44537;DHT22;30245;51.966;6.292;2023-03-23T17:44:12;19.20;54.40
44537;DHT22;30245;51.966;6.292;2023-03-23T17:46:38;19.30;54.50